Portada
METAR-TAF:

METAR-TAF

Aeroports :

Faro, Portugal

latitud: 37-01N, longitud: 007-58W, altitud: 7 m

Observació

L'informe es va fer fa 11 minuts, a les 07:30 UTC
Vent 18 kt del Est
Temperatura 25°C
Humitat 74%
Pressió 1020 hPa
Visibilitat 10 km o més
sense núvols per sota de 1500 mi sense presència de cumulonimbus.

METAR: LPFR 260730Z 09018KT CAVOK 25/20 Q1020

Hora: 08:41 (07:41 UTC)

Pronòstic

L'informe es va fer fa 2 hores i 41 minuts, a les 05:00 UTC
Pronòstic vàlid del 26 a les 06 UTC al 27 a les 06 UTC
Vent 15 kt del Est
Visibilitat 10 km o més
sense núvols per sota de 1500 mi sense presència de cumulonimbus.

TAF: LPFR 260500Z 2606/2706 10015KT CAVOK

Observacions i pronòstics meteorològics de més de 4000 aeroports (METAR i TAF).

Les estacions disponibles són els punts grocs i vermells al mapa.

Posi el ratolí al punt desitjat per veure el nom de l'estació.

Feu clic per veure les observacions i els pronòstics meteorològics.

Per canviar el mapa: feu clic els botons verds amb una creu de color negre per apropar; al botó verd amb un guió per allunyar la imatge; o en les fletxes verdes per a mapes adjacents.


METAR-TAF: